Time;durP1;ratioP1;P1;durP2;ratioP2;P2;SDS_P1;SDS_P2;PMS_P1;PMS_P2;Temp;Humidity;BMP_temperature;BMP_pressure;BME280_temperature;BME280_humidity;BME280_pressure;Samples;Min_cycle;Max_cycle;Signal;HPM_P1;HPM_P2
2022/07/16 00:02:31;;;;;;;15.38;4.25;;;;;;;13.99;78.99;101956.56;5029300;28;20463;-74
2022/07/16 00:04:57;;;;;;;13.13;4.78;;;;;;;14.03;77.53;101949.09;5028624;28;20033;-74
2022/07/16 00:07:22;;;;;;;11.70;4.10;;;;;;;14.13;78.98;101950.19;5024021;28;20469;-74
2022/07/16 00:09:48;;;;;;;13.75;4.75;;;;;;;14.20;77.76;101951.44;5029941;28;20017;-74
2022/07/16 00:12:13;;;;;;;16.50;4.82;;;;;;;14.25;75.83;101943.91;5027804;28;20033;-74
2022/07/16 00:14:38;;;;;;;12.15;3.80;;;;;;;14.32;74.32;101953.31;5029935;28;20066;-74
2022/07/16 00:17:04;;;;;;;13.07;4.07;;;;;;;14.36;73.30;101958.47;5027168;28;20469;-74
2022/07/16 00:19:29;;;;;;;12.93;4.53;;;;;;;14.39;73.99;101955.56;5025855;28;20107;-74
2022/07/16 00:21:56;;;;;;;10.85;3.67;;;;;;;14.45;73.04;101956.00;5023154;28;20080;-74
2022/07/16 00:24:23;;;;;;;10.65;4.22;;;;;;;14.51;72.36;101960.94;5026739;28;20058;-74
2022/07/16 00:26:48;;;;;;;12.80;4.38;;;;;;;14.51;73.95;101960.94;5034167;28;20052;-74
2022/07/16 00:29:15;;;;;;;15.93;4.30;;;;;;;14.53;73.93;101968.09;5026375;28;20090;-74
2022/07/16 00:31:42;;;;;;;13.25;4.53;;;;;;;14.53;73.83;101960.84;5031235;28;20409;-74
2022/07/16 00:34:08;;;;;;;13.73;4.38;;;;;;;14.51;72.88;101966.38;5025254;28;20544;-74
2022/07/16 00:36:35;;;;;;;13.57;4.50;;;;;;;14.55;75.07;101967.00;5025371;28;20056;-74
2022/07/16 00:39:00;;;;;;;18.60;4.72;;;;;;;14.53;73.47;101963.53;5021804;28;20086;-74
2022/07/16 00:41:25;;;;;;;15.75;4.97;;;;;;;14.50;74.03;101958.34;5030069;28;20451;-74
2022/07/16 00:43:56;;;;;;;13.27;4.65;;;;;;;14.48;73.88;101965.69;5025094;28;20112;-74
2022/07/16 00:46:21;;;;;;;12.68;4.60;;;;;;;14.45;75.36;101958.69;5028235;28;20045;-74
2022/07/16 00:48:47;;;;;;;16.15;5.07;;;;;;;14.46;76.81;101962.25;5025815;28;20038;-74
2022/07/16 00:51:14;;;;;;;16.08;4.65;;;;;;;14.47;75.37;101962.16;5027604;28;20048;-74
2022/07/16 00:53:41;;;;;;;12.90;4.45;;;;;;;14.46;75.27;101967.66;5029645;28;20029;-74
2022/07/16 00:56:13;;;;;;;10.48;4.20;;;;;;;14.52;75.98;101956.41;5024309;28;20033;-74
2022/07/16 00:58:41;;;;;;;16.27;4.90;;;;;;;14.55;75.13;101958.03;5034927;28;20041;-74
2022/07/16 01:01:08;;;;;;;12.48;4.78;;;;;;;14.59;74.76;101960.38;5024709;28;20025;-74
2022/07/16 01:03:35;;;;;;;13.45;4.97;;;;;;;14.63;76.39;101955.66;5031028;28;20366;-74
2022/07/16 01:06:05;;;;;;;13.93;4.90;;;;;;;14.65;77.15;101959.97;5022984;28;20057;-74
2022/07/16 01:08:33;;;;;;;14.35;5.03;;;;;;;14.66;76.22;101950.88;5026634;28;20044;-74
2022/07/16 01:10:59;;;;;;;10.15;4.57;;;;;;;14.71;75.97;101955.09;5022347;28;20025;-74
2022/07/16 01:13:26;;;;;;;17.42;5.53;;;;;;;14.74;76.77;101957.56;5030181;28;20037;-74
2022/07/16 01:15:52;;;;;;;13.43;5.35;;;;;;;14.77;75.23;101949.22;5025451;28;20025;-74
2022/07/16 01:18:17;;;;;;;13.73;5.15;;;;;;;14.82;74.34;101941.66;5024991;28;20040;-74
2022/07/16 01:20:43;;;;;;;16.25;5.60;;;;;;;14.85;74.91;101944.13;5018530;28;20025;-74
2022/07/16 01:23:09;;;;;;;15.43;5.60;;;;;;;14.88;75.30;101941.19;5023839;28;20172;-74
2022/07/16 01:25:34;;;;;;;16.42;5.30;;;;;;;14.92;75.13;101940.00;5014741;28;20128;-74
2022/07/16 01:27:59;;;;;;;15.98;4.85;;;;;;;14.96;73.58;101944.16;5020964;28;20497;-74
2022/07/16 01:30:25;;;;;;;13.88;4.95;;;;;;;14.99;74.51;101943.09;5026058;28;20205;-74
2022/07/16 01:32:50;;;;;;;13.90;4.63;;;;;;;14.99;73.62;101948.50;5023914;28;20501;-74
2022/07/16 01:35:16;;;;;;;14.70;4.50;;;;;;;15.00;71.62;101952.94;5021724;28;20028;-74
2022/07/16 01:37:41;;;;;;;12.65;4.60;;;;;;;15.01;71.40;101951.97;5031940;28;20140;-74
2022/07/16 01:40:07;;;;;;;13.55;4.32;;;;;;;15.01;74.10;101949.28;5032674;28;20094;-74
2022/07/16 01:42:32;;;;;;;14.70;4.85;;;;;;;14.99;70.67;101952.09;5033473;28;20556;-74
2022/07/16 01:44:57;;;;;;;11.73;4.57;;;;;;;14.97;75.06;101956.75;5029834;28;20508;-74
2022/07/16 01:47:23;;;;;;;14.40;4.80;;;;;;;14.93;71.43;101955.22;5021875;28;20036;-74
2022/07/16 01:49:48;;;;;;;15.38;5.38;;;;;;;14.93;72.94;101957.94;5025148;28;20500;-74
2022/07/16 01:52:21;;;;;;;11.70;4.55;;;;;;;14.98;70.72;101958.47;5031097;28;20037;-74
2022/07/16 01:54:49;;;;;;;12.30;4.47;;;;;;;14.98;70.43;101963.03;5030259;28;20056;-74
2022/07/16 01:57:15;;;;;;;13.05;4.93;;;;;;;14.99;71.00;101956.63;5027538;28;20025;-74
2022/07/16 01:59:41;;;;;;;12.55;4.63;;;;;;;14.96;70.78;101959.56;5030856;28;20048;-74
2022/07/16 02:02:06;;;;;;;15.25;4.68;;;;;;;14.99;70.46;101952.09;5025013;28;20037;-74
2022/07/16 02:04:32;;;;;;;16.70;5.63;;;;;;;15.08;71.79;101957.78;5030381;28;20030;-74
2022/07/16 02:06:58;;;;;;;13.20;5.13;;;;;;;15.08;70.97;101942.41;5032929;28;20037;-74
2022/07/16 02:09:23;;;;;;;18.23;5.13;;;;;;;15.11;70.63;101947.59;5028734;28;20041;-74
2022/07/16 02:11:49;;;;;;;18.70;5.25;;;;;;;15.10;69.95;101936.88;5025057;28;20034;-74
2022/07/16 02:14:14;;;;;;;16.17;5.15;;;;;;;15.11;69.46;101944.00;5031804;28;20032;-74
2022/07/16 02:16:40;;;;;;;14.80;5.22;;;;;;;15.09;69.49;101933.28;5032604;28;20026;-74
2022/07/16 02:19:05;;;;;;;14.30;5.43;;;;;;;15.09;72.97;101933.28;5030452;28;20033;-74
2022/07/16 02:21:31;;;;;;;14.65;5.55;;;;;;;15.08;70.62;101938.81;5019729;28;20542;-74
2022/07/16 02:23:58;;;;;;;17.38;5.78;;;;;;;15.08;71.15;101941.53;5027015;28;20058;-74
2022/07/16 02:26:23;;;;;;;14.60;5.28;;;;;;;15.09;70.55;101929.72;5020190;28;20041;-74
2022/07/16 02:28:49;;;;;;;15.32;5.88;;;;;;;15.09;70.43;101932.44;5032168;28;20091;-74
2022/07/16 02:31:14;;;;;;;15.20;5.75;;;;;;;15.11;70.78;101946.72;5025457;28;20060;-74
2022/07/16 02:33:39;;;;;;;16.63;5.47;;;;;;;15.10;70.30;101928.75;5021842;28;20029;-74
2022/07/16 02:36:05;;;;;;;15.48;5.13;;;;;;;15.10;70.15;101928.75;5019008;28;20056;-74
2022/07/16 02:38:30;;;;;;;14.57;5.50;;;;;;;15.09;72.16;101941.41;5014265;28;20026;-74
2022/07/16 02:40:55;;;;;;;17.65;5.80;;;;;;;15.08;71.64;101933.41;5028692;28;20060;-74
2022/07/16 02:43:21;;;;;;;12.25;4.75;;;;;;;15.09;73.88;101927.03;5031067;28;20033;-74
2022/07/16 02:45:46;;;;;;;15.90;5.82;;;;;;;15.02;72.02;101929.31;5025971;28;20030;-74
2022/07/16 02:48:12;;;;;;;17.17;5.90;;;;;;;15.00;72.85;101926.72;5031315;28;20060;-74
2022/07/16 02:50:38;;;;;;;17.05;6.45;;;;;;;14.98;72.09;101923.28;5029884;28;20026;-74
2022/07/16 02:53:03;;;;;;;15.38;6.00;;;;;;;14.98;70.96;101931.41;5021862;28;20408;-74
2022/07/16 02:55:29;;;;;;;15.90;5.90;;;;;;;15.01;73.66;101928.47;5030417;28;20017;-74
2022/07/16 02:57:54;;;;;;;17.90;5.45;;;;;;;14.98;73.53;101936.81;5029373;28;20025;-74
2022/07/16 03:00:20;;;;;;;17.00;5.95;;;;;;;14.97;71.78;101939.63;5029765;28;20045;-74
2022/07/16 03:02:45;;;;;;;17.25;6.05;;;;;;;14.93;72.21;101936.28;5025646;28;20025;-74
2022/07/16 03:05:11;;;;;;;17.08;6.68;;;;;;;14.90;72.86;101936.50;5027783;28;20029;-74
2022/07/16 03:07:37;;;;;;;15.27;5.38;;;;;;;14.87;74.46;101939.44;5031930;28;20040;-74
2022/07/16 03:10:04;;;;;;;21.55;6.15;;;;;;;14.87;73.40;101944.88;5030387;28;20473;-74
2022/07/16 03:12:30;;;;;;;17.92;5.57;;;;;;;14.86;73.19;101948.53;5028167;28;20531;-74
2022/07/16 03:14:55;;;;;;;18.60;5.88;;;;;;;14.88;74.48;101945.75;5031125;28;20029;-74
2022/07/16 03:17:21;;;;;;;16.08;6.20;;;;;;;14.91;73.29;101949.06;5030986;28;20021;-74
2022/07/16 03:19:46;;;;;;;17.50;6.60;;;;;;;14.92;72.72;101944.53;5030950;28;20029;-74
2022/07/16 03:22:11;;;;;;;17.75;6.20;;;;;;;14.94;71.72;101946.13;5028811;28;20025;-74
2022/07/16 03:24:37;;;;;;;15.57;5.68;;;;;;;14.92;71.35;101941.81;5027987;28;20088;-74
2022/07/16 03:27:02;;;;;;;18.13;6.95;;;;;;;14.97;72.08;101942.34;5030778;28;20037;-74
2022/07/16 03:29:27;;;;;;;19.15;6.85;;;;;;;14.99;70.52;101949.38;5033075;28;20033;-74
2022/07/16 03:31:53;;;;;;;18.77;6.65;;;;;;;15.03;70.78;101958.13;5027316;28;20536;-74
2022/07/16 03:34:19;;;;;;;17.30;6.93;;;;;;;15.06;71.41;101960.59;5046056;28;20435;-74
2022/07/16 03:36:44;;;;;;;18.83;8.02;;;;;;;15.05;70.93;101955.31;5032484;28;20083;-74
2022/07/16 03:39:09;;;;;;;17.08;6.80;;;;;;;15.07;70.81;101961.50;5029318;28;20029;-74
2022/07/16 03:41:37;;;;;;;18.20;6.85;;;;;;;15.03;71.72;101958.13;5031561;28;20021;-74
2022/07/16 03:44:05;;;;;;;17.55;7.47;;;;;;;15.04;72.13;101957.16;5030856;28;20051;-74
2022/07/16 03:46:30;;;;;;;18.38;6.85;;;;;;;15.04;72.00;101968.00;5029346;28;20025;-74
2022/07/16 03:48:56;;;;;;;18.20;6.75;;;;;;;15.06;72.51;101971.44;5028784;28;20507;-74
2022/07/16 03:51:22;;;;;;;18.08;6.82;;;;;;;15.06;72.23;101971.44;5031184;28;20470;-74
2022/07/16 03:53:48;;;;;;;18.92;6.22;;;;;;;15.08;72.37;101968.59;5031246;28;20028;-74
2022/07/16 03:56:13;;;;;;;20.70;7.57;;;;;;;15.06;71.67;101971.44;5028105;28;20033;-74
2022/07/16 03:58:40;;;;;;;14.88;5.78;;;;;;;15.07;72.91;101977.72;5027445;28;20393;-74
2022/07/16 04:01:05;;;;;;;20.67;7.43;;;;;;;15.05;71.79;101972.41;5029518;28;20109;-74
2022/07/16 04:03:32;;;;;;;15.52;6.03;;;;;;;15.08;73.46;101976.72;5031568;28;20108;-74
2022/07/16 04:05:57;;;;;;;19.10;7.78;;;;;;;15.10;72.92;101972.09;5022313;28;20554;-74
2022/07/16 04:08:23;;;;;;;16.75;6.40;;;;;;;15.12;73.29;101980.94;5026711;28;20099;-74
2022/07/16 04:10:48;;;;;;;20.38;7.50;;;;;;;15.12;72.66;101976.38;5031218;28;20028;-74
2022/07/16 04:13:13;;;;;;;17.00;6.90;;;;;;;15.16;72.71;101987.88;5030466;28;20021;-74
2022/07/16 04:15:39;;;;;;;17.63;6.63;;;;;;;15.20;73.16;101989.38;5020322;28;20087;-74
2022/07/16 04:18:04;;;;;;;19.30;7.47;;;;;;;15.23;73.27;101988.25;5029248;28;20389;-74
2022/07/16 04:20:29;;;;;;;16.95;6.70;;;;;;;15.27;73.14;101989.75;5025138;28;20470;-74
2022/07/16 04:22:55;;;;;;;21.33;7.43;;;;;;;15.28;72.75;101986.94;5029363;28;20029;-74
2022/07/16 04:25:20;;;;;;;17.58;6.80;;;;;;;15.31;73.36;101999.38;5023600;28;20444;-74
2022/07/16 04:27:47;;;;;;;18.65;6.97;;;;;;;15.31;73.62;101997.53;5024234;28;20108;-74
2022/07/16 04:30:12;;;;;;;19.77;7.40;;;;;;;15.32;73.80;101995.72;5027797;28;20022;-74
2022/07/16 04:32:39;;;;;;;19.33;6.68;;;;;;;15.32;74.02;101993.84;5023839;28;20032;-74
2022/07/16 04:35:06;;;;;;;17.70;6.72;;;;;;;15.32;75.52;101999.28;5030030;28;20040;-74
2022/07/16 04:37:31;;;;;;;20.50;7.30;;;;;;;15.30;77.17;101994.94;5029615;28;20033;-74
2022/07/16 04:39:57;;;;;;;19.20;7.72;;;;;;;15.26;76.86;101999.75;5029979;28;20116;-74
2022/07/16 04:42:22;;;;;;;20.58;7.70;;;;;;;15.28;76.33;102003.19;5030928;28;20034;-74
2022/07/16 04:44:47;;;;;;;17.70;6.80;;;;;;;15.27;76.91;102006.91;5028783;28;20454;-74
2022/07/16 04:47:12;;;;;;;21.95;7.88;;;;;;;15.26;77.53;102007.88;5026065;28;20025;-74
2022/07/16 04:49:38;;;;;;;19.40;7.57;;;;;;;15.27;77.58;102008.72;5027911;28;20029;-74
2022/07/16 04:52:04;;;;;;;20.33;8.52;;;;;;;15.30;77.57;102012.06;5030507;28;20120;-74
2022/07/16 04:54:29;;;;;;;18.20;7.78;;;;;;;15.32;78.49;102009.25;5027960;28;20025;-74
2022/07/16 04:56:54;;;;;;;19.42;8.15;;;;;;;15.31;78.72;102008.38;5024636;28;20476;-74
2022/07/16 04:59:20;;;;;;;18.10;7.07;;;;;;;15.30;79.63;102009.38;5018256;28;20041;-74
2022/07/16 05:01:45;;;;;;;20.73;7.53;;;;;;;15.28;80.31;102016.72;5026701;28;20026;-74
2022/07/16 05:04:10;;;;;;;21.25;6.80;;;;;;;15.28;81.14;102013.16;5022054;28;20037;-74
2022/07/16 05:06:35;;;;;;;18.38;6.82;;;;;;;15.27;81.72;102017.72;5020337;28;20029;-74
2022/07/16 05:09:01;;;;;;;17.58;6.70;;;;;;;15.30;82.08;102012.06;5026103;28;20083;-74
2022/07/16 05:11:28;;;;;;;19.50;6.80;;;;;;;15.31;82.46;102013.78;5031629;28;20032;-74
2022/07/16 05:13:53;;;;;;;20.95;6.70;;;;;;;15.34;83.37;102024.41;5032168;28;20464;-74
2022/07/16 05:16:19;;;;;;;16.05;6.03;;;;;;;15.37;83.67;102029.59;5032245;28;20030;-74
2022/07/16 05:18:44;;;;;;;15.82;5.53;;;;;;;15.40;84.29;102020.34;5030454;28;20046;-74
2022/07/16 05:21:09;;;;;;;17.23;6.28;;;;;;;15.46;84.68;102028.03;5022716;28;20405;-74
2022/07/16 05:23:35;;;;;;;16.25;5.50;;;;;;;15.51;85.27;102033.97;5024437;28;20029;-74
2022/07/16 05:26:00;;;;;;;18.08;5.68;;;;;;;15.57;85.60;102034.50;5030962;28;20037;-74
2022/07/16 05:28:25;;;;;;;16.33;6.05;;;;;;;15.61;85.92;102036.84;5030231;28;20032;-74
2022/07/16 05:30:51;;;;;;;14.45;5.20;;;;;;;15.66;85.09;102036.50;5026466;28;20389;-72
2022/07/16 05:33:17;;;;;;;18.50;5.53;;;;;;;15.71;84.86;102037.00;5028178;28;20040;-73
2022/07/16 05:35:42;;;;;;;13.27;3.67;;;;;;;15.74;80.54;102039.50;5028815;28;20021;-73
2022/07/16 05:38:07;;;;;;;13.05;4.57;;;;;;;15.84;84.29;102042.38;5032016;28;20028;-73
2022/07/16 05:40:32;;;;;;;15.60;4.57;;;;;;;15.87;81.45;102042.16;5029524;28;20836;-73
2022/07/16 05:42:58;;;;;;;17.85;5.43;;;;;;;15.94;84.73;102043.41;5023200;28;20053;-73
2022/07/16 05:45:23;;;;;;;16.90;5.18;;;;;;;15.98;84.41;102039.47;5031044;28;20051;-73
2022/07/16 05:47:48;;;;;;;16.67;5.07;;;;;;;16.00;80.91;102042.97;5032456;28;20029;-73
2022/07/16 05:50:14;;;;;;;15.48;5.43;;;;;;;16.08;85.83;102043.19;5030862;28;20386;-74
2022/07/16 05:52:39;;;;;;;15.38;4.82;;;;;;;16.13;84.14;102048.25;5031123;28;20036;-73
2022/07/16 05:55:05;;;;;;;14.10;4.60;;;;;;;16.18;84.62;102046.06;5034561;28;20549;-73
2022/07/16 05:57:30;;;;;;;18.27;4.72;;;;;;;16.22;85.55;102052.09;5027454;28;20040;-73
2022/07/16 05:59:55;;;;;;;14.70;4.68;;;;;;;16.27;85.93;102051.75;5031049;28;20026;-73
2022/07/16 06:02:20;;;;;;;13.27;4.30;;;;;;;16.32;85.65;102061.25;5031382;28;20041;-73
2022/07/16 06:04:46;;;;;;;9.68;3.75;;;;;;;16.36;85.08;102054.59;5028591;28;20022;-73
2022/07/16 06:07:11;;;;;;;9.85;3.90;;;;;;;16.37;82.32;102060.88;5026647;28;20044;-73
2022/07/16 06:09:36;;;;;;;14.40;4.32;;;;;;;16.42;85.44;102062.25;5029124;28;20144;-73
2022/07/16 06:12:02;;;;;;;13.00;3.97;;;;;;;16.47;83.39;102063.75;5025272;28;20017;-73
2022/07/16 06:14:27;;;;;;;13.50;3.97;;;;;;;16.53;83.93;102071.41;5022736;28;20025;-73
2022/07/16 06:16:52;;;;;;;6.63;2.65;;;;;;;16.57;82.84;102081.03;5023696;28;20069;-73
2022/07/16 06:19:18;;;;;;;11.10;3.42;;;;;;;16.58;80.01;102075.47;5018675;28;20033;-73
2022/07/16 06:21:43;;;;;;;13.20;3.20;;;;;;;16.65;81.59;102080.41;5023098;28;20047;-73
2022/07/16 06:24:08;;;;;;;10.00;2.90;;;;;;;16.69;81.21;102085.50;5033550;28;20061;-72
2022/07/16 06:26:33;;;;;;;7.55;3.00;;;;;;;16.74;79.72;102085.13;5023551;28;20473;-73
2022/07/16 06:28:59;;;;;;;6.97;2.80;;;;;;;16.78;78.76;102092.03;5024408;28;20037;-73
2022/07/16 06:31:24;;;;;;;6.88;2.70;;;;;;;16.82;78.12;102092.66;5031243;28;20035;-73
2022/07/16 06:33:49;;;;;;;8.02;3.17;;;;;;;16.85;78.17;102095.13;5025960;28;20373;-73
2022/07/16 06:36:15;;;;;;;9.90;2.85;;;;;;;16.87;78.73;102093.16;5017200;28;20030;-73
2022/07/16 06:38:40;;;;;;;7.15;2.90;;;;;;;16.91;79.03;102100.97;5019271;28;20476;-73
2022/07/16 06:41:05;;;;;;;8.95;3.03;;;;;;;16.94;79.34;102098.00;5036355;28;20590;-72
2022/07/16 06:43:30;;;;;;;8.15;2.80;;;;;;;16.97;78.53;102101.44;5024564;28;20037;-73
2022/07/16 06:45:56;;;;;;;11.50;3.25;;;;;;;17.02;78.67;102105.50;5029529;28;20032;-73
2022/07/16 06:48:22;;;;;;;7.07;2.45;;;;;;;17.05;77.88;102107.97;5031151;28;20025;-73
2022/07/16 06:50:48;;;;;;;6.28;2.67;;;;;;;17.09;77.30;102111.34;5025702;28;20481;-73
2022/07/16 06:53:13;;;;;;;9.60;3.03;;;;;;;17.12;75.73;102111.94;5032273;28;20053;-73
2022/07/16 06:55:38;;;;;;;8.93;2.67;;;;;;;17.17;76.01;102106.13;5033628;28;20071;-73
2022/07/16 06:58:03;;;;;;;8.43;2.30;;;;;;;17.18;75.24;102112.44;5022866;28;20034;-73
2022/07/16 07:00:29;;;;;;;7.38;2.40;;;;;;;17.20;75.45;102118.59;5029115;28;20478;-74
2022/07/16 07:02:54;;;;;;;8.27;2.60;;;;;;;17.24;75.27;102122.78;5032518;28;20037;-73
2022/07/16 07:05:19;;;;;;;6.32;2.38;;;;;;;17.26;73.27;102124.41;5028456;28;20393;-73
2022/07/16 07:07:44;;;;;;;6.03;2.58;;;;;;;17.33;73.35;102132.03;5031031;28;20030;-74
2022/07/16 07:10:10;;;;;;;6.57;2.55;;;;;;;17.36;72.92;102139.94;5029079;28;20025;-74
2022/07/16 07:12:35;;;;;;;6.88;2.28;;;;;;;17.40;72.98;102141.44;5035199;28;20656;-73
2022/07/16 07:15:01;;;;;;;9.02;2.05;;;;;;;17.43;72.71;102142.03;5030399;28;20029;-74
2022/07/16 07:17:27;;;;;;;6.40;2.17;;;;;;;17.49;74.07;102146.09;5023834;28;20036;-74
2022/07/16 07:19:52;;;;;;;3.58;1.80;;;;;;;17.52;71.33;102150.44;5024199;28;20021;-73
2022/07/16 07:22:18;;;;;;;6.15;2.25;;;;;;;17.53;69.14;102150.31;5013261;28;20034;-73
2022/07/16 07:24:43;;;;;;;8.50;2.58;;;;;;;17.59;67.70;102151.66;5030642;28;20056;-73
2022/07/16 07:27:08;;;;;;;7.72;2.30;;;;;;;17.62;67.97;102152.25;5023243;28;20069;-74
2022/07/16 07:29:33;;;;;;;4.00;1.58;;;;;;;17.66;66.29;102161.03;5033164;28;20040;-74
2022/07/16 07:31:59;;;;;;;5.60;1.88;;;;;;;17.70;66.84;102157.06;5030669;28;20057;-74
2022/07/16 07:34:24;;;;;;;5.75;1.98;;;;;;;17.71;67.51;102155.22;5032821;28;20112;-74
2022/07/16 07:36:49;;;;;;;7.25;1.90;;;;;;;17.74;66.63;102157.66;5032233;28;20029;-74
2022/07/16 07:39:15;;;;;;;6.63;2.20;;;;;;;17.77;67.00;102165.56;5033034;28;20025;-74
2022/07/16 07:41:40;;;;;;;8.25;1.92;;;;;;;17.81;66.87;102159.75;5031465;28;20021;-73
2022/07/16 07:44:05;;;;;;;6.65;2.10;;;;;;;17.85;64.86;102167.63;5032685;28;20034;-73
2022/07/16 07:46:30;;;;;;;8.18;2.40;;;;;;;17.90;65.74;102166.31;5029667;28;20025;-73
2022/07/16 07:48:56;;;;;;;5.53;1.73;;;;;;;17.92;65.94;102169.78;5030459;28;20385;-74
2022/07/16 07:51:21;;;;;;;7.38;2.30;;;;;;;17.93;63.88;102170.63;5013158;28;20049;-74
2022/07/16 07:53:47;;;;;;;7.38;2.15;;;;;;;17.95;64.95;102174.06;5012947;28;20068;-75
2022/07/16 07:56:13;;;;;;;6.93;1.98;;;;;;;17.95;63.94;102172.22;5013178;28;20022;-74
2022/07/16 07:58:39;;;;;;;9.05;2.33;;;;;;;17.98;64.30;102173.84;5030444;28;20025;-74
2022/07/16 08:01:04;;;;;;;5.07;2.38;;;;;;;18.00;64.86;102174.56;5025774;28;20026;-76
2022/07/16 08:03:29;;;;;;;9.10;2.65;;;;;;;18.04;65.12;102178.75;5032266;28;20034;-72
2022/07/16 08:05:55;;;;;;;7.38;2.22;;;;;;;18.09;66.96;102184.66;5030148;28;20037;-74
2022/07/16 08:08:20;;;;;;;7.30;2.35;;;;;;;18.12;65.60;102181.69;5031542;28;20520;-74
2022/07/16 08:10:45;;;;;;;6.22;2.20;;;;;;;18.13;64.73;102182.56;5019447;28;20045;-75
2022/07/16 08:13:11;;;;;;;7.78;2.40;;;;;;;18.16;65.30;102191.31;5011603;28;20037;-75
2022/07/16 08:15:36;;;;;;;7.22;2.00;;;;;;;18.14;63.14;102192.44;5022862;28;20092;-75
2022/07/16 08:18:01;;;;;;;5.95;2.28;;;;;;;18.17;63.61;102195.78;5030673;28;20033;-75
2022/07/16 08:20:27;;;;;;;4.13;1.92;;;;;;;18.20;64.81;102194.66;5024622;28;20437;-75
2022/07/16 08:22:52;;;;;;;8.43;2.28;;;;;;;18.24;63.35;102200.69;5031798;28;20065;-75
2022/07/16 08:28:01;;;;;;;5.22;2.05;;;;;;;18.30;63.11;102200.16;5025971;28;20092;-75
2022/07/16 08:30:27;;;;;;;6.80;2.35;;;;;;;18.32;63.75;102206.34;5030510;28;20037;-75
2022/07/16 08:32:52;;;;;;;6.25;2.35;;;;;;;18.37;63.51;102212.25;5030924;28;20025;-75
2022/07/16 08:35:18;;;;;;;10.10;2.60;;;;;;;18.39;62.72;102209.41;5026688;28;20478;-75
2022/07/16 08:37:46;;;;;;;9.45;2.58;;;;;;;18.41;63.16;102208.28;5029011;28;20036;-75
2022/07/16 08:40:14;;;;;;;5.57;2.03;;;;;;;18.42;62.38;102220.91;5030241;28;20029;-75
2022/07/16 08:42:40;;;;;;;8.15;2.30;;;;;;;18.49;63.12;102219.41;5034186;28;20021;-75
2022/07/16 08:45:07;;;;;;;4.90;2.03;;;;;;;18.52;62.81;102221.84;5033128;28;20033;-75
2022/07/16 08:47:33;;;;;;;6.88;2.08;;;;;;;18.56;61.24;102221.59;5035681;28;20029;-74
2022/07/16 08:50:00;;;;;;;6.32;2.58;;;;;;;18.57;60.08;102220.59;5033799;28;20057;-73
2022/07/16 08:52:28;;;;;;;11.30;2.83;;;;;;;18.56;58.98;102227.88;5024908;28;20062;-73
2022/07/16 08:54:54;;;;;;;7.47;2.05;;;;;;;18.58;61.62;102233.19;5022148;28;20021;-73
2022/07/16 08:57:21;;;;;;;6.47;2.55;;;;;;;18.62;60.18;102229.22;5030277;28;20397;-73
2022/07/16 08:59:47;;;;;;;7.38;2.40;;;;;;;18.67;59.93;102237.88;5042717;28;20030;-73
2022/07/16 09:02:13;;;;;;;5.22;2.47;;;;;;;18.73;60.09;102234.63;5051599;28;20040;-73
2022/07/16 09:04:41;;;;;;;7.55;2.22;;;;;;;18.72;61.36;102238.34;5035646;28;20029;-73
2022/07/16 09:07:06;;;;;;;4.80;1.95;;;;;;;18.73;59.05;102247.34;5029372;28;20392;-73
2022/07/16 09:09:33;;;;;;;7.05;2.38;;;;;;;18.77;60.89;102244.25;5034803;28;20029;-73
2022/07/16 09:11:58;;;;;;;5.90;2.05;;;;;;;18.83;58.19;102243.72;5035967;28;20029;-73
2022/07/16 09:14:23;;;;;;;7.45;2.10;;;;;;;18.91;58.88;102236.78;5035706;28;20453;-73
2022/07/16 09:16:51;;;;;;;7.72;2.00;;;;;;;18.93;59.18;102248.41;5033433;28;20124;-73
2022/07/16 09:19:19;;;;;;;10.05;2.40;;;;;;;18.96;57.89;102250.84;5029092;28;20383;-73
2022/07/16 09:22:06;;;;;;;3.97;2.03;;;;;;;18.96;60.18;102250.84;5018439;28;20084;-74
2022/07/16 09:24:52;;;;;;;5.47;2.08;;;;;;;18.96;58.81;102250.84;5032444;28;20518;-73
2022/07/16 09:27:17;;;;;;;9.48;2.50;;;;;;;19.02;59.45;102245.75;5030488;28;20040;-73
2022/07/16 09:29:47;;;;;;;10.48;2.25;;;;;;;19.08;56.92;102241.63;5035729;28;20029;-73
2022/07/16 09:32:26;;;;;;;9.20;2.28;;;;;;;19.13;56.45;102250.25;5023288;28;20029;-73
2022/07/16 09:35:04;;;;;;;6.57;2.33;;;;;;;19.21;57.66;102255.91;5029526;28;20037;-73
2022/07/16 09:37:56;;;;;;;6.57;2.17;;;;;;;19.25;57.88;102248.28;5035087;28;20116;-73
2022/07/16 09:40:47;;;;;;;5.03;1.92;;;;;;;19.27;59.46;102262.66;5034073;28;20033;-74
2022/07/16 09:43:13;;;;;;;5.95;2.25;;;;;;;19.30;56.97;102256.09;5032571;28;20041;-73
2022/07/16 09:45:41;;;;;;;6.68;2.42;;;;;;;19.29;57.46;102255.22;5034927;28;20106;-73
2022/07/16 09:48:31;;;;;;;8.35;2.33;;;;;;;19.34;57.66;102262.97;5034299;28;20056;-74
2022/07/16 09:51:13;;;;;;;7.20;1.88;;;;;;;19.35;56.87;102270.16;5017102;28;20037;-73
2022/07/16 09:53:40;;;;;;;5.85;2.00;;;;;;;19.30;54.35;102275.19;5019572;28;20062;-72
2022/07/16 09:56:08;;;;;;;9.50;1.98;;;;;;;19.34;57.96;102272.03;5034219;28;20057;-72
2022/07/16 09:58:35;;;;;;;7.78;2.20;;;;;;;19.36;57.66;102269.19;5027198;28;20064;-73
2022/07/16 10:01:02;;;;;;;4.35;1.83;;;;;;;19.37;53.19;102273.59;5028862;28;20031;-72
2022/07/16 10:03:29;;;;;;;6.68;2.17;;;;;;;19.40;56.54;102278.81;5027090;28;20394;-73
2022/07/16 10:05:54;;;;;;;3.47;1.73;;;;;;;19.45;56.09;102273.81;5028546;28;20026;-73
2022/07/16 10:08:21;;;;;;;5.88;1.80;;;;;;;19.47;51.63;102276.38;5035948;28;20052;-73
2022/07/16 10:10:47;;;;;;;5.10;1.90;;;;;;;19.50;56.76;102278.84;5025756;28;20032;-73
2022/07/16 10:13:14;;;;;;;5.43;1.85;;;;;;;19.53;54.23;102287.63;5029101;28;20032;-73
2022/07/16 10:15:41;;;;;;;6.68;2.53;;;;;;;19.58;53.56;102284.50;5034639;28;20033;-73
2022/07/16 10:18:42;;;;;;;4.28;1.85;;;;;;;19.65;55.14;102285.66;5029581;28;20036;-73
2022/07/16 10:21:27;;;;;;;5.75;2.22;;;;;;;19.72;55.13;102285.97;5027912;28;20476;-73
2022/07/16 10:24:13;;;;;;;12.00;2.35;;;;;;;19.81;56.64;102295.22;5027219;28;20047;-73
2022/07/16 10:26:39;;;;;;;7.00;2.08;;;;;;;19.87;53.74;102289.22;5033185;28;20021;-73
2022/07/16 10:29:04;;;;;;;7.38;2.00;;;;;;;19.98;52.89;102290.97;5028497;28;20501;-73
2022/07/16 10:31:40;;;;;;;5.70;1.90;;;;;;;20.07;53.37;102291.00;5028913;28;20409;-73
2022/07/16 10:34:15;;;;;;;5.32;2.17;;;;;;;20.23;52.77;102292.31;5028597;28;20175;-73
2022/07/16 10:36:48;;;;;;;5.63;2.03;;;;;;;20.22;52.23;102291.47;5027466;28;20032;-73
2022/07/16 10:39:15;;;;;;;9.40;2.30;;;;;;;20.23;54.08;102304.09;5030202;28;20610;-73
2022/07/16 10:41:55;;;;;;;6.10;1.95;;;;;;;20.23;53.72;102295.91;5031918;28;20370;-73
2022/07/16 10:44:23;;;;;;;7.47;2.17;;;;;;;20.20;52.35;102317.19;5036658;28;20037;-73
2022/07/16 10:47:03;;;;;;;5.35;2.05;;;;;;;20.24;52.74;102303.09;5034362;28;20425;-73
2022/07/16 10:49:30;;;;;;;10.63;2.30;;;;;;;20.24;53.34;102304.97;5029124;28;20037;-73
2022/07/16 10:51:56;;;;;;;8.80;2.55;;;;;;;20.31;54.59;102305.25;5037054;28;20520;-73
2022/07/16 10:54:23;;;;;;;10.50;2.03;;;;;;;20.36;52.81;102303.00;5035887;28;20033;-73
2022/07/16 10:56:50;;;;;;;6.78;2.58;;;;;;;20.43;54.21;102315.06;5036487;28;20056;-73
2022/07/16 10:59:19;;;;;;;6.82;2.22;;;;;;;20.48;52.48;102314.63;5028268;28;20116;-73
2022/07/16 11:01:46;;;;;;;6.97;2.10;;;;;;;20.45;51.57;102310.31;5027964;28;20508;-73
2022/07/16 11:04:14;;;;;;;6.30;2.10;;;;;;;20.43;51.96;102318.66;5035008;28;20120;-73
2022/07/16 11:06:41;;;;;;;5.10;1.83;;;;;;;20.39;51.80;102308.16;5030715;28;20521;-73
2022/07/16 11:09:08;;;;;;;6.47;2.40;;;;;;;20.40;52.94;102307.16;5030190;28;20036;-73
2022/07/16 11:11:35;;;;;;;3.28;2.00;;;;;;;20.54;53.94;102325.00;5033422;28;20111;-73
2022/07/16 11:14:02;;;;;;;7.00;2.13;;;;;;;20.63;52.28;102315.06;5027971;28;20079;-73
2022/07/16 11:16:28;;;;;;;11.52;2.53;;;;;;;20.64;51.87;102319.53;5029454;28;20473;-73
2022/07/16 11:18:53;;;;;;;4.45;2.13;;;;;;;20.63;51.46;102323.28;5035754;28;20029;-73
2022/07/16 11:21:19;;;;;;;4.85;2.03;;;;;;;20.60;51.42;102328.03;5036416;28;20068;-73